createdAt,value
2019-04-26T00:01:32.673Z,95591.95
2019-04-26T00:04:01.565Z,95589.34
2019-04-26T00:06:30.371Z,95588.55
2019-04-26T00:09:00.664Z,95581.36
2019-04-26T00:11:40.020Z,95587.00
2019-04-26T00:14:25.398Z,95584.52
2019-04-26T00:16:58.391Z,95585.48
2019-04-26T00:19:27.409Z,95585.05
2019-04-26T00:21:56.517Z,95581.06
2019-04-26T00:24:28.274Z,95582.95
2019-04-26T00:26:55.857Z,95581.22
2019-04-26T00:29:24.484Z,95580.34
2019-04-26T00:31:53.225Z,95583.95
2019-04-26T00:34:21.869Z,95575.27
2019-04-26T00:36:50.443Z,95574.05
2019-04-26T00:39:18.945Z,95571.94
2019-04-26T00:41:47.876Z,95578.02
2019-04-26T00:44:16.637Z,95577.81
2019-04-26T00:46:48.060Z,95576.63
2019-04-26T00:49:17.588Z,95579.17
2019-04-26T00:51:47.035Z,95575.42
2019-04-26T00:54:16.065Z,95571.52
2019-04-26T00:56:44.840Z,95570.64
2019-04-26T00:59:14.949Z,95565.63
2019-04-26T01:01:45.313Z,95560.00
2019-04-26T01:04:14.558Z,95564.12
2019-04-26T01:06:45.812Z,95567.02
2019-04-26T01:09:15.932Z,95568.74
2019-04-26T01:11:44.804Z,95564.70
2019-04-26T01:14:13.428Z,95557.88
2019-04-26T01:16:42.146Z,95562.17
2019-04-26T01:19:13.611Z,95560.42
2019-04-26T01:21:45.214Z,95564.47
2019-04-26T01:24:14.942Z,95561.22
2019-04-26T01:26:45.019Z,95560.44
2019-04-26T01:29:17.165Z,95568.03
2019-04-26T01:32:01.772Z,95569.83
2019-04-26T01:34:31.313Z,95563.16
2019-04-26T01:37:02.134Z,95562.35
2019-04-26T01:39:32.260Z,95559.12
2019-04-26T01:42:05.773Z,95555.34
2019-04-26T01:44:55.357Z,95551.92
2019-04-26T01:47:24.697Z,95548.29
2019-04-26T01:49:53.942Z,95547.28
2019-04-26T01:52:23.994Z,95547.44
2019-04-26T01:54:52.823Z,95548.44
2019-04-26T01:57:25.292Z,95541.64
2019-04-26T01:59:57.897Z,95539.58
2019-04-26T02:02:28.185Z,95542.03
2019-04-26T02:05:02.201Z,95542.83
2019-04-26T02:07:41.010Z,95543.25
2019-04-26T02:10:17.600Z,95535.52
2019-04-26T02:12:48.502Z,95530.73
2019-04-26T02:15:20.157Z,95533.63
2019-04-26T02:17:51.045Z,95531.91
2019-04-26T02:20:48.560Z,95537.33
2019-04-26T02:23:18.845Z,95542.77
2019-04-26T02:25:47.886Z,95543.33
2019-04-26T02:28:16.733Z,95548.66
2019-04-26T02:30:45.642Z,95536.50
2019-04-26T02:33:15.221Z,95538.52
2019-04-26T02:35:43.961Z,95540.81
2019-04-26T02:38:12.600Z,95537.77
2019-04-26T02:40:41.441Z,95540.38
2019-04-26T02:43:11.177Z,95530.81
2019-04-26T02:46:05.131Z,95521.80
2019-04-26T02:48:38.311Z,95525.55
2019-04-26T02:51:18.766Z,95531.16
2019-04-26T02:53:52.996Z,95532.01
2019-04-26T02:56:28.217Z,95500.48
2019-04-26T02:59:00.435Z,95524.90
2019-04-26T03:01:31.812Z,95529.80
2019-04-26T03:04:00.368Z,95523.59
2019-04-26T03:06:32.765Z,95527.91
2019-04-26T03:09:06.623Z,95529.80
2019-04-26T03:11:40.952Z,95534.70
2019-04-26T03:14:13.837Z,95529.91
2019-04-26T03:16:58.574Z,95532.22
2019-04-26T03:19:54.662Z,95537.02
2019-04-26T03:22:42.837Z,95540.70
2019-04-26T03:25:28.956Z,95541.25
2019-04-26T03:28:37.623Z,95546.20
2019-04-26T03:31:27.921Z,95553.40
2019-04-26T03:34:22.673Z,95548.86
2019-04-26T03:37:20.713Z,95554.30
2019-04-26T03:40:02.756Z,95556.59
2019-04-26T03:42:55.719Z,95551.64
2019-04-26T03:45:44.189Z,95550.14
2019-04-26T03:48:40.829Z,95551.88
2019-04-26T03:51:29.369Z,95558.17
2019-04-26T03:54:15.935Z,95569.48
2019-04-26T03:56:49.134Z,95570.58
2019-04-26T03:59:27.862Z,95572.37
2019-04-26T04:02:17.198Z,95569.44
2019-04-26T04:04:59.203Z,95569.74
2019-04-26T04:07:39.529Z,95572.10
2019-04-26T04:10:18.893Z,95572.30
2019-04-26T04:12:59.577Z,95572.77
2019-04-26T04:15:31.417Z,95577.02
2019-04-26T04:18:07.419Z,95577.48
2019-04-26T04:21:09.544Z,95582.88
2019-04-26T04:23:42.772Z,95584.92
2019-04-26T04:26:14.479Z,95574.97
2019-04-26T04:29:04.382Z,95575.05
2019-04-26T04:31:43.675Z,95577.78
2019-04-26T04:34:33.255Z,95578.14
2019-04-26T04:37:04.855Z,95579.77
2019-04-26T04:39:36.393Z,95590.69
2019-04-26T04:42:43.658Z,95589.59
2019-04-26T04:45:42.524Z,95595.78
2019-04-26T04:48:42.377Z,95594.30
2019-04-26T04:51:44.866Z,95587.94
2019-04-26T04:54:37.391Z,95586.87
2019-04-26T04:57:14.716Z,95593.92
2019-04-26T05:00:03.805Z,95592.06
2019-04-26T05:02:39.920Z,95600.03
2019-04-26T05:05:24.947Z,95596.79
2019-04-26T05:08:08.557Z,95584.41
2019-04-26T05:10:40.151Z,95583.23
2019-04-26T05:13:23.905Z,95590.45
2019-04-26T05:16:15.008Z,95594.34
2019-04-26T05:19:26.726Z,95591.22
2019-04-26T05:22:20.879Z,95587.14
2019-04-26T05:25:12.145Z,95594.05
2019-04-26T05:27:46.778Z,95596.58
2019-04-26T05:30:22.879Z,95599.80
2019-04-26T05:33:09.594Z,95598.72
2019-04-26T05:36:10.099Z,95600.70
2019-04-26T05:38:41.723Z,95593.98
2019-04-26T05:41:35.862Z,95600.64
2019-04-26T05:44:18.238Z,95599.83
2019-04-26T05:47:22.336Z,95597.62
2019-04-26T05:50:27.135Z,95598.47
2019-04-26T05:53:03.300Z,95596.50
2019-04-26T05:56:02.519Z,95592.38
2019-04-26T05:58:39.946Z,95597.67
2019-04-26T06:01:57.397Z,95601.48
2019-04-26T06:04:30.581Z,95599.89
2019-04-26T06:07:27.845Z,95597.34
2019-04-26T06:10:06.786Z,95583.91
2019-04-26T06:13:03.919Z,95587.14
2019-04-26T06:16:02.434Z,95584.12
2019-04-26T06:18:44.654Z,95590.70
2019-04-26T06:21:31.240Z,95596.19
2019-04-26T06:24:17.773Z,95594.84
2019-04-26T06:27:11.003Z,95585.49
2019-04-26T06:29:55.203Z,95584.52
2019-04-26T06:32:38.849Z,95577.68
2019-04-26T06:35:13.357Z,95578.70
2019-04-26T06:38:07.660Z,95568.11
2019-04-26T06:40:54.552Z,95572.36
2019-04-26T06:43:27.613Z,95574.05
2019-04-26T06:46:28.199Z,95575.47
2019-04-26T06:49:26.704Z,95576.52
2019-04-26T06:52:13.092Z,95578.64
2019-04-26T06:55:13.517Z,95580.28
2019-04-26T06:58:13.110Z,95571.48
2019-04-26T07:01:10.588Z,95568.25
2019-04-26T07:03:59.643Z,95553.23
2019-04-26T07:06:47.996Z,95557.14
2019-04-26T07:09:18.314Z,95547.80
2019-04-26T07:12:17.224Z,95550.33
2019-04-26T07:15:05.825Z,95551.03
2019-04-26T07:17:46.564Z,95546.23
2019-04-26T07:20:38.383Z,95543.38
2019-04-26T07:23:35.685Z,95544.19
2019-04-26T07:26:25.646Z,95548.60
2019-04-26T07:29:03.128Z,95547.26
2019-04-26T07:31:43.926Z,95550.89
2019-04-26T07:34:34.615Z,95554.78
2019-04-26T07:37:18.212Z,95549.00
2019-04-26T07:40:12.161Z,95544.38
2019-04-26T07:42:57.435Z,95547.43
2019-04-26T07:46:03.017Z,95540.89
2019-04-26T07:48:55.043Z,95537.06
2019-04-26T07:51:55.237Z,95536.66
2019-04-26T07:54:45.039Z,95538.03
2019-04-26T07:57:40.996Z,95532.45
2019-04-26T08:00:18.975Z,95535.16
2019-04-26T08:03:05.504Z,95538.34
2019-04-26T08:05:53.174Z,95539.18
2019-04-26T08:08:24.735Z,95541.58
2019-04-26T08:11:06.194Z,95539.34
2019-04-26T08:13:37.892Z,95536.33
2019-04-26T08:16:19.207Z,95537.14
2019-04-26T08:18:52.481Z,95530.83
2019-04-26T08:21:25.657Z,95539.31
2019-04-26T08:24:01.086Z,95539.10
2019-04-26T08:26:32.676Z,95535.55
2019-04-26T08:29:06.496Z,95539.59
2019-04-26T08:31:38.681Z,95536.74
2019-04-26T08:34:12.364Z,95538.52
2019-04-26T08:36:45.233Z,95537.08
2019-04-26T08:39:32.475Z,95534.80
2019-04-26T08:41:57.535Z,95536.16
2019-04-26T08:44:34.448Z,95536.42
2019-04-26T08:47:16.736Z,95533.14
2019-04-26T08:49:47.904Z,95533.40
2019-04-26T08:52:18.929Z,95528.24
2019-04-26T08:54:53.563Z,95524.98
2019-04-26T08:57:25.562Z,95526.14
2019-04-26T08:59:56.780Z,95527.63
2019-04-26T09:02:44.589Z,95520.07
2019-04-26T09:05:20.294Z,95515.19
2019-04-26T09:07:53.497Z,95507.86
2019-04-26T09:10:25.106Z,95508.11
2019-04-26T09:12:56.493Z,95498.41
2019-04-26T09:15:44.747Z,95500.34
2019-04-26T09:18:13.384Z,95496.73
2019-04-26T09:20:42.879Z,95483.56
2019-04-26T09:23:20.091Z,95483.56
2019-04-26T09:25:59.309Z,95480.70
2019-04-26T09:28:28.167Z,95481.23
2019-04-26T09:31:19.747Z,95473.70
2019-04-26T09:33:58.552Z,95470.37
2019-04-26T09:36:27.194Z,95467.55
2019-04-26T09:38:55.834Z,95453.98
2019-04-26T09:41:26.502Z,95455.45
2019-04-26T09:44:02.291Z,95458.86
2019-04-26T09:46:52.763Z,95450.79
2019-04-26T09:49:30.189Z,95450.61
2019-04-26T09:51:58.939Z,95443.31
2019-04-26T09:54:27.573Z,95442.31
2019-04-26T09:56:56.214Z,95435.54
2019-04-26T09:59:24.841Z,95432.92
2019-04-26T10:01:55.386Z,95429.98
2019-04-26T10:04:23.906Z,95428.30
2019-04-26T10:06:52.540Z,95422.36
2019-04-26T10:09:22.791Z,95418.31
2019-04-26T10:11:53.169Z,95412.84
2019-04-26T10:14:23.440Z,95405.73
2019-04-26T10:17:02.579Z,95404.76
2019-04-26T10:19:38.621Z,95403.56
2019-04-26T10:22:07.303Z,95392.84
2019-04-26T10:24:36.131Z,95389.25
2019-04-26T10:27:05.024Z,95393.29
2019-04-26T10:29:33.679Z,95388.44
2019-04-26T10:32:02.473Z,95388.16
2019-04-26T10:34:31.238Z,95382.00
2019-04-26T10:37:01.658Z,95382.36
2019-04-26T10:39:32.483Z,95374.44
2019-04-26T10:42:00.705Z,95378.12
2019-04-26T10:44:29.349Z,95374.69
2019-04-26T10:46:59.882Z,95368.52
2019-04-26T10:49:38.782Z,95360.00
2019-04-26T10:52:11.934Z,95356.03
2019-04-26T10:54:45.943Z,95360.80
2019-04-26T10:57:15.194Z,95345.42
2019-04-26T10:59:45.619Z,95344.77
2019-04-26T11:02:16.713Z,95333.25
2019-04-26T11:04:45.359Z,95331.88
2019-04-26T11:07:14.167Z,95329.33
2019-04-26T11:09:42.808Z,95321.00
2019-04-26T11:12:14.737Z,95319.22
2019-04-26T11:14:43.585Z,95307.43
2019-04-26T11:17:16.186Z,95298.55
2019-04-26T11:19:44.320Z,95300.06
2019-04-26T11:22:13.130Z,95298.45
2019-04-26T11:24:41.836Z,95299.27
2019-04-26T11:27:11.242Z,95296.50
2019-04-26T11:29:39.941Z,95293.98
2019-04-26T11:32:09.177Z,95293.84
2019-04-26T11:34:37.871Z,95290.63
2019-04-26T11:37:06.683Z,95284.41
2019-04-26T11:39:36.528Z,95283.61
2019-04-26T11:42:07.974Z,95282.02
2019-04-26T11:44:36.097Z,95283.82
2019-04-26T11:47:07.718Z,95278.34
2019-04-26T11:49:37.307Z,95274.33
2019-04-26T11:52:05.762Z,95274.14
2019-04-26T11:54:34.487Z,95265.70
2019-04-26T11:57:03.213Z,95266.97
2019-04-26T11:59:31.987Z,95265.88
2019-04-26T12:02:00.608Z,95268.47
2019-04-26T12:04:40.149Z,95257.53
2019-04-26T12:07:16.508Z,95255.84
2019-04-26T12:09:46.757Z,95257.05
2019-04-26T12:12:15.384Z,95248.76
2019-04-26T12:14:44.008Z,95241.19
2019-04-26T12:17:12.649Z,95240.16
2019-04-26T12:19:41.296Z,95235.13
2019-04-26T12:22:10.070Z,95234.41
2019-04-26T12:24:38.681Z,95239.77
2019-04-26T12:27:10.215Z,95232.13
2019-04-26T12:29:37.745Z,95223.73
2019-04-26T12:32:06.491Z,95226.98
2019-04-26T12:34:35.190Z,95230.23
2019-04-26T12:37:03.935Z,95222.08
2019-04-26T12:39:36.771Z,95218.34
2019-04-26T12:42:04.302Z,95213.09
2019-04-26T12:44:36.377Z,95198.13
2019-04-26T12:47:09.613Z,95205.61
2019-04-26T12:49:38.241Z,95196.47
2019-04-26T12:52:07.099Z,95186.97
2019-04-26T12:54:38.964Z,95189.45
2019-04-26T12:57:07.041Z,95181.88
2019-04-26T12:59:44.067Z,95183.23
2019-04-26T13:02:06.390Z,95179.39
2019-04-26T13:04:36.142Z,95185.41
2019-04-26T13:07:22.685Z,95180.75
2019-04-26T13:09:43.387Z,95181.00
2019-04-26T13:12:13.657Z,95179.27
2019-04-26T13:14:56.076Z,95179.69
2019-04-26T13:17:26.343Z,95176.50
2019-04-26T13:19:55.473Z,95176.27
2019-04-26T13:22:24.222Z,95173.94
2019-04-26T13:24:52.894Z,95171.74
2019-04-26T13:27:21.412Z,95164.23
2019-04-26T13:30:01.808Z,95163.80
2019-04-26T13:32:20.396Z,95155.72
2019-04-26T13:34:49.064Z,95159.77
2019-04-26T13:37:17.678Z,95154.51
2019-04-26T13:39:46.352Z,95147.42
2019-04-26T13:42:17.415Z,95151.73
2019-04-26T13:44:52.772Z,95146.31
2019-04-26T13:47:39.462Z,95150.00
2019-04-26T13:50:15.682Z,95152.24
2019-04-26T13:52:44.300Z,95145.93
2019-04-26T13:55:14.565Z,95147.70
2019-04-26T13:57:44.571Z,95138.90
2019-04-26T14:00:15.311Z,95139.70
2019-04-26T14:02:44.021Z,95136.62
2019-04-26T14:05:15.278Z,95137.89
2019-04-26T14:07:43.122Z,95133.59
2019-04-26T14:10:11.889Z,95141.16
2019-04-26T14:12:40.575Z,95139.94
2019-04-26T14:15:10.234Z,95136.97
2019-04-26T14:17:38.956Z,95131.95
2019-04-26T14:20:08.522Z,95128.81
2019-04-26T14:22:40.997Z,95128.44
2019-04-26T14:25:11.316Z,95130.56
2019-04-26T14:27:49.896Z,95125.92
2019-04-26T14:30:18.127Z,95129.67
2019-04-26T14:32:46.791Z,95131.24
2019-04-26T14:35:17.086Z,95128.27
2019-04-26T14:37:49.805Z,95127.80
2019-04-26T14:40:17.713Z,95124.75
2019-04-26T14:42:48.557Z,95129.77
2019-04-26T14:45:23.642Z,95124.34
2019-04-26T14:47:47.893Z,95124.34
2019-04-26T14:50:16.929Z,95128.99
2019-04-26T14:52:45.583Z,95127.11
2019-04-26T14:55:16.519Z,95120.59
2019-04-26T14:57:46.767Z,95117.14
2019-04-26T15:00:16.776Z,95115.81
2019-04-26T15:03:03.413Z,95116.70
2019-04-26T15:05:33.677Z,95111.17
2019-04-26T15:08:03.888Z,95119.95
2019-04-26T15:10:44.404Z,95109.09
2019-04-26T15:13:17.236Z,95107.72
2019-04-26T15:15:37.402Z,95108.51
2019-04-26T15:18:06.336Z,95110.70
2019-04-26T15:20:35.059Z,95105.60
2019-04-26T15:23:03.700Z,95111.39
2019-04-26T15:25:33.617Z,95116.81
2019-04-26T15:28:02.572Z,95109.58
2019-04-26T15:30:34.272Z,95112.89
2019-04-26T15:33:03.086Z,95116.67
2019-04-26T15:35:35.625Z,95123.11
2019-04-26T15:38:02.527Z,95120.41
2019-04-26T15:40:44.954Z,95119.34
2019-04-26T15:43:24.417Z,95117.67
2019-04-26T15:45:57.412Z,95117.16
2019-04-26T15:48:36.896Z,95114.55
2019-04-26T15:51:05.592Z,95117.94
2019-04-26T15:53:34.221Z,95110.05
2019-04-26T15:56:02.964Z,95107.87
2019-04-26T15:58:31.599Z,95116.07
2019-04-26T16:01:00.401Z,95109.46
2019-04-26T16:03:29.096Z,95105.48
2019-04-26T16:05:59.144Z,95106.07
2019-04-26T16:08:28.109Z,95105.83
2019-04-26T16:10:56.758Z,95106.91
2019-04-26T16:13:25.410Z,95101.77
2019-04-26T16:15:54.085Z,95098.33
2019-04-26T16:18:22.725Z,95100.08
2019-04-26T16:20:53.189Z,95094.90
2019-04-26T16:23:22.387Z,95091.95
2019-04-26T16:25:52.565Z,95098.67
2019-04-26T16:28:31.030Z,95094.08
2019-04-26T16:31:06.646Z,95092.75
2019-04-26T16:33:36.277Z,95089.85
2019-04-26T16:36:06.312Z,95091.42
2019-04-26T16:38:35.920Z,95089.28
2019-04-26T16:41:05.355Z,95095.70
2019-04-26T16:43:40.029Z,95091.87
2019-04-26T16:46:04.951Z,95088.05
2019-04-26T16:48:33.630Z,95090.31
2019-04-26T16:51:08.423Z,95094.14
2019-04-26T16:53:46.445Z,95096.97
2019-04-26T16:56:03.708Z,95093.23
2019-04-26T16:58:38.141Z,95097.38
2019-04-26T17:01:04.482Z,95102.84
2019-04-26T17:03:38.191Z,95102.77
2019-04-26T17:06:06.617Z,95104.41
2019-04-26T17:08:34.052Z,95112.45
2019-04-26T17:11:02.693Z,95110.23
2019-04-26T17:13:34.768Z,95113.78
2019-04-26T17:16:02.288Z,95110.20
2019-04-26T17:18:32.333Z,95110.08
2019-04-26T17:21:02.571Z,95118.56
2019-04-26T17:23:35.922Z,95113.71
2019-04-26T17:26:22.631Z,95120.09
2019-04-26T17:28:52.461Z,95125.38
2019-04-26T17:31:22.841Z,95115.50
2019-04-26T17:33:51.501Z,95116.91
2019-04-26T17:36:20.189Z,95114.31
2019-04-26T17:38:50.420Z,95122.86
2019-04-26T17:41:19.221Z,95128.52
2019-04-26T17:43:52.070Z,95126.73
2019-04-26T17:46:19.437Z,95132.48
2019-04-26T17:48:50.706Z,95135.99
2019-04-26T17:51:22.893Z,95135.28
2019-04-26T17:53:56.123Z,95142.43
2019-04-26T17:56:21.517Z,95148.06
2019-04-26T17:58:54.246Z,95152.59
2019-04-26T18:01:41.152Z,95158.16
2019-04-26T18:03:55.587Z,95158.45
2019-04-26T18:06:29.496Z,95164.27
2019-04-26T18:08:54.726Z,95164.30
2019-04-26T18:11:24.853Z,95176.22
2019-04-26T18:13:53.482Z,95180.22
2019-04-26T18:16:27.350Z,95181.85
2019-04-26T18:18:57.208Z,95182.11
2019-04-26T18:21:44.156Z,95179.96
2019-04-26T18:24:13.272Z,95180.80
2019-04-26T18:26:42.051Z,95183.75
2019-04-26T18:29:10.724Z,95187.47
2019-04-26T18:31:39.537Z,95192.52
2019-04-26T18:34:08.170Z,95196.27
2019-04-26T18:36:36.745Z,95197.33
2019-04-26T18:39:07.951Z,95199.73
2019-04-26T18:41:36.626Z,95197.90
2019-04-26T18:44:06.190Z,95201.86
2019-04-26T18:46:46.888Z,95208.45
2019-04-26T18:49:17.564Z,95203.48
2019-04-26T18:51:48.027Z,95207.39
2019-04-26T18:54:17.816Z,95207.39
2019-04-26T18:56:46.669Z,95214.77
2019-04-26T18:59:15.648Z,95213.98
2019-04-26T19:01:44.443Z,95213.94
2019-04-26T19:04:15.455Z,95218.20
2019-04-26T19:06:43.557Z,95214.82
2019-04-26T19:09:12.524Z,95224.39
2019-04-26T19:11:42.088Z,95222.02
2019-04-26T19:14:16.012Z,95214.11
2019-04-26T19:17:02.032Z,95219.67
2019-04-26T19:19:44.864Z,95223.63
2019-04-26T19:22:16.735Z,95226.53
2019-04-26T19:24:43.978Z,95220.50
2019-04-26T19:27:12.708Z,95226.34
2019-04-26T19:29:43.271Z,95222.66
2019-04-26T19:32:11.996Z,95222.69
2019-04-26T19:34:42.138Z,95220.55
2019-04-26T19:37:10.941Z,95224.00
2019-04-26T19:39:39.600Z,95215.83
2019-04-26T19:42:08.308Z,95220.09
2019-04-26T19:44:36.940Z,95221.91
2019-04-26T19:47:19.614Z,95225.06
2019-04-26T19:49:54.085Z,95223.79
2019-04-26T19:52:33.634Z,95220.09
2019-04-26T19:55:18.288Z,95216.95
2019-04-26T19:58:01.942Z,95214.86
2019-04-26T20:00:32.188Z,95218.25
2019-04-26T20:03:01.626Z,95214.30
2019-04-26T20:05:31.982Z,95211.67
2019-04-26T20:08:02.957Z,95214.05
2019-04-26T20:10:34.556Z,95210.38
2019-04-26T20:13:02.552Z,95211.42
2019-04-26T20:15:31.894Z,95214.31
2019-04-26T20:18:03.679Z,95212.98
2019-04-26T20:20:32.806Z,95209.06
2019-04-26T20:23:05.965Z,95206.41
2019-04-26T20:25:31.759Z,95204.58
2019-04-26T20:28:01.486Z,95198.28
2019-04-26T20:30:35.122Z,95193.80
2019-04-26T20:33:04.024Z,95195.91
2019-04-26T20:35:32.668Z,95199.84
2019-04-26T20:38:04.656Z,95206.66
2019-04-26T20:40:31.705Z,95207.65
2019-04-26T20:43:03.267Z,95208.73
2019-04-26T20:45:39.878Z,95211.37
2019-04-26T20:48:02.350Z,95215.28
2019-04-26T20:50:35.157Z,95211.84
2019-04-26T20:53:02.354Z,95207.36
2019-04-26T20:55:34.495Z,95201.05
2019-04-26T20:58:07.065Z,95195.79
2019-04-26T21:00:36.449Z,95203.66
2019-04-26T21:03:05.960Z,95206.26
2019-04-26T21:05:45.762Z,95204.16
2019-04-26T21:08:03.765Z,95212.80
2019-04-26T21:10:32.531Z,95213.30
2019-04-26T21:13:01.908Z,95212.25
2019-04-26T21:15:32.183Z,95211.71
2019-04-26T21:18:04.063Z,95210.34
2019-04-26T21:20:34.492Z,95213.73
2019-04-26T21:23:02.689Z,95214.52
2019-04-26T21:25:42.846Z,95212.67
2019-04-26T21:28:29.405Z,95212.64
2019-04-26T21:30:59.620Z,95215.52
2019-04-26T21:33:35.398Z,95208.86
2019-04-26T21:36:05.933Z,95211.50
2019-04-26T21:38:39.394Z,95215.70
2019-04-26T21:41:14.012Z,95211.67
2019-04-26T21:43:43.837Z,95215.83
2019-04-26T21:46:18.496Z,95211.62
2019-04-26T21:48:44.572Z,95213.16
2019-04-26T21:51:16.061Z,95219.25
2019-04-26T21:53:45.100Z,95210.06
2019-04-26T21:56:14.834Z,95200.28
2019-04-26T21:58:46.015Z,95214.47
2019-04-26T22:01:18.997Z,95204.73
2019-04-26T22:03:55.257Z,95211.02
2019-04-26T22:06:19.985Z,95211.02
2019-04-26T22:08:50.313Z,95215.73
2019-04-26T22:11:19.922Z,95214.12
2019-04-26T22:14:00.268Z,95218.05
2019-04-26T22:16:48.893Z,95216.41
2019-04-26T22:19:32.117Z,95214.28
2019-04-26T22:22:04.249Z,95212.39
2019-04-26T22:24:37.661Z,95214.47
2019-04-26T22:27:06.302Z,95219.13
2019-04-26T22:29:34.945Z,95209.09
2019-04-26T22:32:03.825Z,95208.55
2019-04-26T22:34:32.506Z,95203.03
2019-04-26T22:37:07.193Z,95198.76
2019-04-26T22:39:32.620Z,95200.31
2019-04-26T22:42:02.808Z,95207.14
2019-04-26T22:44:34.681Z,95199.20
2019-04-26T22:47:21.527Z,95195.73
2019-04-26T22:49:50.237Z,95193.45
2019-04-26T22:52:18.876Z,95191.86
2019-04-26T22:54:47.653Z,95191.06
2019-04-26T22:57:16.668Z,95192.08
2019-04-26T22:59:49.944Z,95192.56
2019-04-26T23:02:18.570Z,95191.77
2019-04-26T23:04:47.520Z,95186.25
2019-04-26T23:07:18.518Z,95188.83
2019-04-26T23:09:51.938Z,95189.08
2019-04-26T23:12:28.122Z,95185.11
2019-04-26T23:15:03.895Z,95189.00
2019-04-26T23:17:36.844Z,95179.00
2019-04-26T23:20:14.353Z,95178.69
2019-04-26T23:22:43.039Z,95176.27
2019-04-26T23:25:13.551Z,95173.88
2019-04-26T23:27:43.569Z,95172.02
2019-04-26T23:30:14.045Z,95165.16
2019-04-26T23:32:43.438Z,95169.61
2019-04-26T23:35:13.743Z,95156.75
2019-04-26T23:37:42.509Z,95160.95
2019-04-26T23:40:11.254Z,95160.87
2019-04-26T23:42:39.893Z,95156.16
2019-04-26T23:45:10.651Z,95155.91
2019-04-26T23:47:39.144Z,95150.84
2019-04-26T23:50:07.990Z,95143.22
2019-04-26T23:52:36.628Z,95147.94
2019-04-26T23:55:08.806Z,95147.34
2019-04-26T23:57:36.533Z,95140.56
